Time;durP1;ratioP1;P1;durP2;ratioP2;P2;SDS_P1;SDS_P2;PMS_P1;PMS_P2;Temp;Humidity;BMP_temperature;BMP_pressure;BME280_temperature;BME280_humidity;BME280_pressure;Samples;Min_cycle;Max_cycle;Signal;HPM_P1;HPM_P2
2022/07/28 00:01:51;;;;;;;4.70;1.40;;;;;;;14.51;72.03;102020.56;4996688;28;20385;-70
2022/07/28 00:04:16;;;;;;;5.57;1.50;;;;;;;14.42;72.13;102020.66;4996479;28;20062;-70
2022/07/28 00:06:41;;;;;;;4.38;1.40;;;;;;;14.57;72.26;102032.88;4996341;28;20109;-69
2022/07/28 00:09:06;;;;;;;4.07;1.40;;;;;;;14.54;72.68;102028.03;4996251;28;20413;-69
2022/07/28 00:11:32;;;;;;;6.70;1.35;;;;;;;14.60;72.27;102019.50;4996227;28;20122;-69
2022/07/28 00:13:57;;;;;;;5.95;1.20;;;;;;;14.42;72.56;102025.88;4995079;28;20018;-70
2022/07/28 00:16:22;;;;;;;5.70;1.40;;;;;;;14.29;73.52;102025.69;4996239;28;20026;-70
2022/07/28 00:18:48;;;;;;;3.63;1.30;;;;;;;14.23;73.74;102016.81;4995993;28;20084;-69
2022/07/28 00:21:13;;;;;;;3.22;1.38;;;;;;;14.29;73.89;102020.50;4996360;28;20026;-70
2022/07/28 00:23:38;;;;;;;7.85;1.48;;;;;;;14.36;73.98;102018.81;4995405;28;20034;-70
2022/07/28 00:26:04;;;;;;;3.25;1.48;;;;;;;14.38;73.81;102022.00;4995844;28;20088;-69
2022/07/28 00:28:29;;;;;;;5.50;1.45;;;;;;;14.29;73.71;102020.50;4995077;28;20403;-69
2022/07/28 00:30:54;;;;;;;4.53;1.40;;;;;;;14.28;74.42;102016.28;4996101;28;20034;-69
2022/07/28 00:33:20;;;;;;;4.45;1.48;;;;;;;14.40;73.83;102014.84;4994585;28;20030;-69
2022/07/28 00:35:46;;;;;;;4.47;1.55;;;;;;;14.37;74.42;102010.00;4995837;28;20060;-70
2022/07/28 00:38:11;;;;;;;3.95;1.40;;;;;;;14.48;73.44;102007.94;4995707;28;20022;-70
2022/07/28 00:43:21;;;;;;;3.78;1.55;;;;;;;14.46;74.31;102010.69;4995955;28;20160;-68
2022/07/28 00:45:46;;;;;;;3.22;1.30;;;;;;;14.29;74.80;102015.28;4994680;28;20121;-68
2022/07/28 00:48:12;;;;;;;3.58;1.55;;;;;;;14.21;75.05;102008.41;4993967;28;20026;-68
2022/07/28 00:50:39;;;;;;;8.10;1.60;;;;;;;14.14;75.59;102011.91;4993760;28;20037;-68
2022/07/28 00:53:05;;;;;;;5.25;1.75;;;;;;;14.13;75.82;102005.91;4995172;28;20030;-68
2022/07/28 00:55:30;;;;;;;2.85;1.40;;;;;;;14.06;75.78;102006.81;4995178;28;20084;-68
2022/07/28 00:57:56;;;;;;;4.05;1.55;;;;;;;14.19;76.01;101999.19;4995435;28;20034;-68
2022/07/28 01:00:21;;;;;;;5.32;1.73;;;;;;;14.06;76.04;102004.22;4995291;28;20028;-68
2022/07/28 01:02:46;;;;;;;2.80;1.58;;;;;;;13.88;76.86;101994.97;4995414;28;20030;-71
2022/07/28 01:05:13;;;;;;;3.80;1.73;;;;;;;13.82;77.10;101992.28;4995333;28;20113;-69
2022/07/28 01:07:48;;;;;;;5.55;1.88;;;;;;;13.94;77.25;101994.25;4995173;28;20077;-69
2022/07/28 01:10:35;;;;;;;5.55;1.80;;;;;;;14.02;76.73;101988.16;4994015;28;20032;-69
2022/07/28 01:13:28;;;;;;;5.97;1.58;;;;;;;13.91;76.87;101992.03;4995374;28;20085;-68
2022/07/28 01:16:01;;;;;;;4.72;1.80;;;;;;;14.07;76.93;101998.84;4995217;28;20030;-69
2022/07/28 01:19:01;;;;;;;6.22;1.70;;;;;;;13.94;76.52;101996.84;4995133;28;20034;-68
2022/07/28 01:21:34;;;;;;;2.20;1.50;;;;;;;13.94;76.89;101999.44;4993512;28;20169;-68
2022/07/28 01:24:41;;;;;;;6.47;1.90;;;;;;;13.81;77.56;101994.09;4994531;28;20041;-68
2022/07/28 01:27:11;;;;;;;5.15;2.03;;;;;;;13.68;78.16;101993.88;5001493;28;20136;-68
2022/07/28 01:29:55;;;;;;;5.45;2.10;;;;;;;13.76;78.38;101991.22;4994640;28;20022;-69
2022/07/28 01:32:24;;;;;;;5.57;2.00;;;;;;;13.59;78.64;101987.16;4994768;28;20101;-68
2022/07/28 01:35:08;;;;;;;7.28;2.20;;;;;;;13.46;79.51;101985.97;4992490;28;20042;-68
2022/07/28 01:37:40;;;;;;;6.70;2.00;;;;;;;13.47;79.76;101982.41;4994228;28;20026;-69
2022/07/28 01:40:07;;;;;;;6.28;1.88;;;;;;;13.44;79.53;101974.97;4992976;28;20478;-68
2022/07/28 01:42:37;;;;;;;4.45;1.85;;;;;;;13.35;80.24;101970.84;4994218;28;20026;-69
2022/07/28 01:45:04;;;;;;;6.68;1.85;;;;;;;13.74;78.98;101967.19;4992764;28;20104;-68
2022/07/28 01:47:30;;;;;;;6.70;1.85;;;;;;;13.76;78.17;101967.84;4994390;28;20392;-69
2022/07/28 01:50:00;;;;;;;4.82;1.77;;;;;;;13.71;78.02;101964.97;4994764;28;20462;-68
2022/07/28 01:52:26;;;;;;;5.15;1.92;;;;;;;13.68;77.73;101962.72;4994584;28;20068;-69
2022/07/28 01:54:53;;;;;;;5.47;1.83;;;;;;;13.76;77.05;101962.63;4993983;28;20026;-69
2022/07/28 01:57:20;;;;;;;5.50;1.90;;;;;;;13.62;77.56;101956.44;4992228;28;20053;-69
2022/07/28 01:59:47;;;;;;;6.38;1.90;;;;;;;13.61;78.00;101962.63;4993754;28;20409;-68
2022/07/28 02:02:16;;;;;;;9.18;1.75;;;;;;;13.64;77.68;101961.47;4992331;28;20033;-69
2022/07/28 02:04:43;;;;;;;3.47;1.77;;;;;;;13.54;78.32;101953.94;4994340;28;20030;-69
2022/07/28 02:07:10;;;;;;;5.43;1.80;;;;;;;13.39;79.06;101960.91;4994132;28;20027;-71
2022/07/28 02:09:36;;;;;;;5.45;2.05;;;;;;;13.27;79.70;101963.13;4994186;28;20037;-69
2022/07/28 02:12:04;;;;;;;6.15;1.98;;;;;;;13.36;78.98;101956.06;4994188;28;20030;-69
2022/07/28 02:14:31;;;;;;;9.05;1.92;;;;;;;13.62;77.93;101956.44;4994146;28;20034;-69
2022/07/28 02:17:00;;;;;;;4.95;1.90;;;;;;;13.37;79.24;101957.66;4992658;28;20029;-69
2022/07/28 02:19:28;;;;;;;4.75;2.00;;;;;;;13.07;79.80;101962.75;4993615;28;20054;-68
2022/07/28 02:21:55;;;;;;;5.05;2.10;;;;;;;13.08;79.84;101954.78;4994129;28;20026;-69
2022/07/28 02:24:25;;;;;;;8.55;2.83;;;;;;;13.19;78.71;101955.38;4993880;28;20031;-69
2022/07/28 02:26:56;;;;;;;5.53;2.28;;;;;;;13.10;80.18;101952.81;4993986;28;20030;-70
2022/07/28 02:29:24;;;;;;;6.45;2.17;;;;;;;13.10;80.03;101952.03;4993776;28;20029;-69
2022/07/28 02:32:13;;;;;;;3.92;2.10;;;;;;;13.37;79.06;101950.69;4993777;28;20034;-69
2022/07/28 02:34:41;;;;;;;5.13;2.53;;;;;;;13.37;77.86;101949.88;4993862;28;20026;-68
2022/07/28 02:37:08;;;;;;;4.63;2.30;;;;;;;13.05;79.51;101939.56;4993873;28;20386;-69
2022/07/28 02:39:44;;;;;;;8.23;2.38;;;;;;;13.20;79.22;101941.38;4992978;28;20030;-69
2022/07/28 02:42:16;;;;;;;6.60;2.10;;;;;;;13.28;78.74;101947.34;4993932;28;20045;-69
2022/07/28 02:44:45;;;;;;;9.38;2.40;;;;;;;13.19;78.91;101938.00;4993918;28;20030;-69
2022/07/28 02:47:20;;;;;;;5.60;2.50;;;;;;;12.89;80.01;101937.13;4996126;28;20030;-69
2022/07/28 02:49:48;;;;;;;6.30;2.45;;;;;;;13.05;79.74;101947.34;4996548;28;20458;-68
2022/07/28 02:52:14;;;;;;;6.18;2.35;;;;;;;13.25;79.21;101945.09;4997561;28;20081;-68
2022/07/28 02:54:41;;;;;;;7.75;2.22;;;;;;;13.13;79.02;101941.28;4997915;28;20030;-68
2022/07/28 02:57:07;;;;;;;4.28;2.13;;;;;;;13.17;78.23;101942.53;4997714;28;20022;-69
2022/07/28 02:59:34;;;;;;;12.23;2.55;;;;;;;12.91;79.67;101937.72;4996457;28;20036;-69
2022/07/28 03:02:00;;;;;;;4.65;2.17;;;;;;;12.82;80.39;101933.59;4997512;28;20064;-69
2022/07/28 03:07:10;;;;;;;7.50;2.53;;;;;;;12.92;80.27;101935.94;4997556;28;20054;-69
2022/07/28 03:09:44;;;;;;;3.90;2.10;;;;;;;13.02;79.79;101931.31;4996228;28;20030;-70
2022/07/28 03:12:10;;;;;;;7.05;2.20;;;;;;;13.20;78.91;101941.38;4997440;28;20026;-69
2022/07/28 03:14:35;;;;;;;6.95;2.08;;;;;;;12.99;79.13;101945.44;4997524;28;20119;-69
2022/07/28 03:17:01;;;;;;;5.65;2.28;;;;;;;12.81;80.45;101942.38;4997362;28;20406;-69
2022/07/28 03:19:26;;;;;;;5.65;2.65;;;;;;;12.75;79.95;101937.88;4997254;28;20418;-69
2022/07/28 03:21:53;;;;;;;4.90;1.90;;;;;;;12.64;80.38;101947.66;4997295;28;20026;-69
2022/07/28 03:24:23;;;;;;;6.90;2.13;;;;;;;12.65;80.84;101949.25;4997518;28;20060;-69
2022/07/28 03:27:04;;;;;;;6.00;2.03;;;;;;;12.58;80.59;101940.56;4995904;28;20486;-69
2022/07/28 03:29:32;;;;;;;5.80;2.15;;;;;;;12.72;80.80;101954.59;4997042;28;20022;-70
2022/07/28 03:31:59;;;;;;;13.20;2.20;;;;;;;12.85;80.16;101959.19;4995715;28;20057;-70
2022/07/28 03:34:25;;;;;;;5.22;2.20;;;;;;;12.82;79.85;101960.34;4996616;28;20038;-69
2022/07/28 03:36:55;;;;;;;8.80;2.00;;;;;;;12.87;79.63;101952.84;4995217;28;20424;-70
2022/07/28 03:39:23;;;;;;;8.52;2.05;;;;;;;12.84;79.97;101958.38;4996552;28;20022;-68
2022/07/28 03:41:50;;;;;;;4.30;2.03;;;;;;;12.72;80.21;101961.56;4996503;28;20041;-68
2022/07/28 03:44:16;;;;;;;4.65;2.20;;;;;;;12.78;80.33;101963.47;4995166;28;20029;-71
2022/07/28 03:46:45;;;;;;;5.63;2.20;;;;;;;12.94;79.76;101963.31;4996339;28;20105;-69
2022/07/28 03:49:10;;;;;;;4.85;1.92;;;;;;;12.85;79.75;101964.38;4996381;28;20022;-70
2022/07/28 03:51:36;;;;;;;4.50;1.90;;;;;;;12.93;80.05;101961.72;4996226;28;20549;-69
2022/07/28 03:54:01;;;;;;;7.60;2.53;;;;;;;13.02;79.47;101968.47;4995421;28;20057;-70
2022/07/28 03:56:27;;;;;;;6.15;2.20;;;;;;;12.97;79.67;101970.75;4996653;28;20110;-70
2022/07/28 03:58:52;;;;;;;6.15;1.80;;;;;;;12.99;79.46;101974.00;4995513;28;20057;-69
2022/07/28 04:01:17;;;;;;;3.83;2.00;;;;;;;13.01;79.03;101969.44;4996620;28;20451;-70
2022/07/28 04:03:43;;;;;;;6.90;1.80;;;;;;;12.97;79.00;101973.34;4996478;28;20034;-70
2022/07/28 04:06:09;;;;;;;4.22;1.90;;;;;;;12.55;80.44;101969.44;4996645;28;20196;-70
2022/07/28 04:08:34;;;;;;;3.70;1.70;;;;;;;12.60;80.30;101967.13;4996383;28;20104;-68
2022/07/28 04:10:59;;;;;;;3.75;1.92;;;;;;;12.90;79.02;101967.25;4996512;28;20089;-69
2022/07/28 04:13:24;;;;;;;5.70;1.73;;;;;;;12.74;79.98;101964.75;4996354;28;20393;-69
2022/07/28 04:15:50;;;;;;;4.85;1.80;;;;;;;12.85;79.99;101969.56;4995149;28;20022;-69
2022/07/28 04:18:16;;;;;;;5.70;1.80;;;;;;;12.68;79.87;101968.84;4996147;28;20088;-68
2022/07/28 04:20:41;;;;;;;5.53;1.70;;;;;;;12.89;79.10;101973.44;4995377;28;20402;-69
2022/07/28 04:23:06;;;;;;;5.53;2.10;;;;;;;13.14;79.15;101968.06;4994222;28;20045;-69
2022/07/28 04:25:31;;;;;;;3.28;1.55;;;;;;;13.18;78.21;101969.34;4995982;28;20073;-68
2022/07/28 04:27:57;;;;;;;5.10;1.70;;;;;;;12.92;79.21;101964.47;4996128;28;20522;-69
2022/07/28 04:30:23;;;;;;;10.40;2.10;;;;;;;12.97;78.98;101973.34;4995954;28;20038;-69
2022/07/28 04:32:51;;;;;;;6.68;1.83;;;;;;;13.15;78.55;101967.06;4994790;28;20041;-68
2022/07/28 04:35:18;;;;;;;5.18;1.80;;;;;;;13.31;77.12;101966.97;4996101;28;20121;-68
2022/07/28 04:37:45;;;;;;;4.90;1.80;;;;;;;13.00;78.51;101973.00;4994593;28;20109;-69
2022/07/28 04:40:11;;;;;;;6.30;1.85;;;;;;;13.29;77.98;101974.09;4994180;28;20105;-69
2022/07/28 04:42:38;;;;;;;7.78;2.05;;;;;;;13.62;77.00;101966.84;4995373;28;20030;-69
2022/07/28 04:45:05;;;;;;;5.32;1.75;;;;;;;13.54;76.62;101969.50;4994030;28;20037;-69
2022/07/28 04:47:30;;;;;;;3.35;1.35;;;;;;;13.73;76.37;101971.59;4994131;28;20045;-69
2022/07/28 04:49:56;;;;;;;8.63;1.55;;;;;;;13.81;76.17;101975.91;4995198;28;20105;-69
2022/07/28 04:52:22;;;;;;;4.03;1.55;;;;;;;13.89;75.49;101978.38;4993834;28;20430;-69
2022/07/28 04:54:48;;;;;;;7.55;1.90;;;;;;;13.64;75.82;101974.47;4993788;28;20056;-70
2022/07/28 04:57:13;;;;;;;4.85;1.85;;;;;;;13.72;75.83;101977.78;4993810;28;20018;-70
2022/07/28 04:59:39;;;;;;;3.70;1.55;;;;;;;13.79;75.74;101977.06;4995034;28;20052;-70
2022/07/28 05:02:05;;;;;;;8.23;1.60;;;;;;;13.94;75.64;101981.25;4994936;28;20050;-69
2022/07/28 05:04:31;;;;;;;8.32;1.90;;;;;;;14.08;75.11;101971.06;4994961;28;20077;-69
2022/07/28 05:06:56;;;;;;;8.07;2.05;;;;;;;13.95;74.74;101979.47;4994918;28;20470;-69
2022/07/28 05:09:21;;;;;;;3.58;1.70;;;;;;;13.99;75.34;101967.75;4994937;28;20057;-70
2022/07/28 05:11:46;;;;;;;4.72;1.70;;;;;;;13.65;75.98;101979.47;4993783;28;20078;-69
2022/07/28 05:14:12;;;;;;;7.07;1.85;;;;;;;13.91;75.80;101981.63;4994672;28;20030;-69
2022/07/28 05:16:37;;;;;;;6.93;1.92;;;;;;;14.32;74.16;101973.31;4993411;28;20018;-69
2022/07/28 05:19:02;;;;;;;6.20;1.80;;;;;;;14.20;74.68;101975.59;4993318;28;20562;-68
2022/07/28 05:21:28;;;;;;;11.27;2.22;;;;;;;13.87;75.44;101972.59;4994538;28;20157;-69
2022/07/28 05:23:53;;;;;;;3.85;1.90;;;;;;;14.07;75.02;101965.06;4994538;28;20037;-71
2022/07/28 05:26:19;;;;;;;10.15;1.92;;;;;;;14.28;74.67;101974.69;4994431;28;20026;-71
2022/07/28 05:28:44;;;;;;;3.92;1.73;;;;;;;14.54;74.36;101976.00;4994259;28;20049;-71
2022/07/28 05:31:09;;;;;;;6.97;2.20;;;;;;;14.85;72.73;101973.13;4993118;28;20022;-71
2022/07/28 05:33:35;;;;;;;7.95;2.17;;;;;;;15.15;71.30;101976.38;4994549;28;20113;-71
2022/07/28 05:36:01;;;;;;;6.90;1.98;;;;;;;14.96;70.98;101977.00;5009681;28;20022;-71
2022/07/28 05:38:26;;;;;;;6.97;2.30;;;;;;;15.05;71.64;101968.91;4994410;28;20026;-71
2022/07/28 05:40:52;;;;;;;7.90;1.98;;;;;;;15.30;69.87;101969.28;4994329;28;20504;-71
2022/07/28 05:43:18;;;;;;;3.85;1.73;;;;;;;15.34;69.57;101967.13;4994164;28;20061;-70
2022/07/28 05:45:44;;;;;;;7.95;2.13;;;;;;;15.55;68.98;101963.66;4994101;28;20030;-71
2022/07/28 05:48:09;;;;;;;5.35;1.90;;;;;;;15.55;68.61;101969.66;4994146;28;20030;-71
2022/07/28 05:50:35;;;;;;;4.82;1.88;;;;;;;15.54;67.90;101972.47;4994181;28;20037;-71
2022/07/28 05:53:00;;;;;;;4.75;1.80;;;;;;;15.94;67.75;101970.94;4994073;28;20034;-70
2022/07/28 05:55:25;;;;;;;8.10;1.92;;;;;;;16.05;67.53;101981.78;4994023;28;20023;-71
2022/07/28 05:57:52;;;;;;;3.90;1.90;;;;;;;16.24;66.18;101975.84;4994085;28;20022;-71
2022/07/28 06:00:20;;;;;;;10.65;1.90;;;;;;;16.57;65.12;101977.75;4994032;28;20385;-72
2022/07/28 06:02:47;;;;;;;7.15;1.98;;;;;;;19.42;56.67;101972.56;4992614;28;20022;-72
2022/07/28 06:05:16;;;;;;;6.65;1.88;;;;;;;18.67;57.34;101973.34;4992612;28;20033;-72
2022/07/28 06:07:41;;;;;;;6.88;1.80;;;;;;;22.82;46.42;101965.94;4994082;28;20386;-72
2022/07/28 06:10:07;;;;;;;5.57;1.70;;;;;;;21.70;47.66;101965.50;4993702;28;20026;-72
2022/07/28 06:12:38;;;;;;;6.20;2.03;;;;;;;19.20;54.08;101977.41;4993806;28;20030;-72
2022/07/28 06:15:04;;;;;;;8.77;2.00;;;;;;;18.08;57.56;101979.72;4993831;28;20027;-72
2022/07/28 06:17:30;;;;;;;10.20;1.90;;;;;;;18.82;56.61;101973.88;4993874;28;20038;-71
2022/07/28 06:19:55;;;;;;;8.02;2.13;;;;;;;17.89;58.81;101984.00;4992277;28;20454;-72
2022/07/28 06:22:20;;;;;;;5.05;1.67;;;;;;;17.77;59.15;101981.97;4993033;28;20683;-71
2022/07/28 06:24:45;;;;;;;5.07;1.63;;;;;;;18.06;58.42;101981.72;4993842;28;20032;-71
2022/07/28 06:27:11;;;;;;;6.50;1.70;;;;;;;18.87;56.02;101973.22;4993633;28;20085;-71
2022/07/28 06:29:36;;;;;;;6.90;2.15;;;;;;;17.92;58.44;101980.97;4994037;28;20489;-71
2022/07/28 06:32:01;;;;;;;6.57;1.88;;;;;;;17.34;60.34;101979.84;4993701;28;20032;-71
2022/07/28 06:34:26;;;;;;;4.90;1.98;;;;;;;17.46;60.41;101977.41;4993658;28;20388;-71
2022/07/28 06:36:52;;;;;;;4.60;1.70;;;;;;;18.17;58.84;101989.72;4992508;28;20022;-72
2022/07/28 06:39:17;;;;;;;7.13;1.55;;;;;;;18.21;57.51;101993.53;4993753;28;20030;-72
2022/07/28 06:41:43;;;;;;;6.57;1.95;;;;;;;19.72;54.17;101973.50;4993444;28;20041;-72
2022/07/28 06:44:09;;;;;;;5.05;1.40;;;;;;;21.14;49.10;101980.81;4993567;28;20030;-72
2022/07/28 06:46:35;;;;;;;4.28;1.40;;;;;;;20.25;51.75;101980.75;4993466;28;20390;-72
2022/07/28 06:49:01;;;;;;;4.65;1.58;;;;;;;21.22;48.75;101974.44;4993504;28;20026;-72
2022/07/28 06:51:26;;;;;;;5.72;1.45;;;;;;;19.34;53.24;101979.69;4993636;28;20030;-72
2022/07/28 06:53:52;;;;;;;7.43;1.50;;;;;;;19.10;53.96;101967.41;4993314;28;20102;-72
2022/07/28 06:56:18;;;;;;;6.80;1.38;;;;;;;22.30;46.70;101980.88;4993525;28;20423;-72
2022/07/28 06:58:43;;;;;;;7.53;1.48;;;;;;;24.61;41.72;101973.38;4992187;28;20034;-72
2022/07/28 07:01:09;;;;;;;6.60;1.67;;;;;;;25.80;39.17;101971.94;4993293;28;20033;-72
2022/07/28 07:03:34;;;;;;;7.13;1.48;;;;;;;25.81;38.27;101975.41;4993377;28;20037;-72
2022/07/28 07:06:00;;;;;;;4.13;1.60;;;;;;;28.49;34.41;101975.34;4993343;28;20046;-72
2022/07/28 07:08:25;;;;;;;8.00;1.55;;;;;;;28.17;34.35;101963.34;4993483;28;20100;-73
2022/07/28 07:10:51;;;;;;;4.30;1.48;;;;;;;23.97;41.65;101976.72;4993941;28;20026;-71
2022/07/28 07:13:16;;;;;;;6.93;1.55;;;;;;;23.13;41.59;101972.47;4992035;28;20026;-71
2022/07/28 07:15:41;;;;;;;9.55;1.98;;;;;;;24.94;39.73;101978.38;4991948;28;20046;-72
2022/07/28 07:18:06;;;;;;;7.88;1.75;;;;;;;25.70;38.50;101971.13;4991652;28;20030;-72
2022/07/28 07:20:32;;;;;;;4.18;1.40;;;;;;;27.31;35.18;101975.97;4992848;28;20050;-72
2022/07/28 07:22:57;;;;;;;4.82;1.20;;;;;;;26.48;35.29;101966.50;4991959;28;20474;-72
2022/07/28 07:25:22;;;;;;;4.30;1.15;;;;;;;24.22;38.32;101965.59;4991886;28;20033;-72
2022/07/28 07:27:48;;;;;;;4.38;1.42;;;;;;;23.06;42.40;101961.28;4993121;28;20029;-72
2022/07/28 07:30:14;;;;;;;4.90;1.27;;;;;;;23.17;41.78;101955.94;4991992;28;20056;-72
2022/07/28 07:32:40;;;;;;;3.67;1.20;;;;;;;23.77;40.87;101953.53;4991639;28;20034;-72
2022/07/28 07:35:06;;;;;;;4.00;1.73;;;;;;;24.53;40.09;101953.50;4996544;28;20438;-71
2022/07/28 07:37:31;;;;;;;5.50;1.02;;;;;;;22.38;43.55;101955.19;4996681;28;20026;-71
2022/07/28 07:39:58;;;;;;;6.38;1.60;;;;;;;21.32;45.52;101956.25;4995397;28;20117;-71
2022/07/28 07:42:24;;;;;;;11.32;1.50;;;;;;;21.25;45.62;101960.81;4996277;28;20397;-71
2022/07/28 07:44:49;;;;;;;5.88;1.10;;;;;;;22.89;42.38;101956.81;4996504;28;20030;-72
2022/07/28 07:47:15;;;;;;;5.53;1.30;;;;;;;22.69;42.90;101953.84;4996292;28;20061;-71
2022/07/28 07:49:40;;;;;;;5.90;1.38;;;;;;;23.00;42.70;101952.53;4996160;28;20026;-72
2022/07/28 07:52:05;;;;;;;3.72;1.35;;;;;;;22.92;41.56;101964.22;4996283;28;20018;-71
2022/07/28 07:54:31;;;;;;;5.05;1.50;;;;;;;23.73;41.63;101952.41;4996217;28;20068;-72
2022/07/28 07:56:56;;;;;;;7.35;1.23;;;;;;;22.77;42.29;101953.47;4996214;28;20022;-73
2022/07/28 07:59:21;;;;;;;3.85;1.25;;;;;;;23.19;41.31;101945.16;4994871;28;20559;-72
2022/07/28 08:01:53;;;;;;;6.32;1.58;;;;;;;23.72;40.64;101942.91;4996200;28;20101;-72
2022/07/28 08:04:21;;;;;;;4.17;1.47;;;;;;;23.58;41.09;101950.38;4996102;28;20450;-72
2022/07/28 08:06:48;;;;;;;3.15;1.20;;;;;;;22.93;41.41;101952.66;4995985;28;20077;-72
2022/07/28 08:09:14;;;;;;;4.38;0.90;;;;;;;21.70;44.21;101951.53;4996002;28;20109;-72
2022/07/28 08:11:39;;;;;;;3.25;1.08;;;;;;;22.13;43.96;101952.88;4994652;28;20102;-72
2022/07/28 08:14:08;;;;;;;7.25;1.42;;;;;;;21.78;41.72;101951.97;4994907;28;20038;-71
2022/07/28 08:16:34;;;;;;;4.35;1.25;;;;;;;21.28;43.90;101952.47;4996083;28;20429;-71
2022/07/28 08:18:59;;;;;;;4.80;1.10;;;;;;;21.22;42.18;101956.03;4994275;28;20018;-72
2022/07/28 08:21:25;;;;;;;5.85;1.15;;;;;;;22.28;41.08;101945.28;4995782;28;20084;-72
2022/07/28 08:23:52;;;;;;;3.58;1.05;;;;;;;22.13;40.87;101952.88;4995713;28;20030;-71
2022/07/28 08:26:17;;;;;;;2.17;0.90;;;;;;;21.95;41.20;101944.16;4995621;28;20089;-72
2022/07/28 08:28:43;;;;;;;3.45;1.00;;;;;;;21.88;40.05;101951.38;4995614;28;20018;-72
2022/07/28 08:31:08;;;;;;;2.60;1.05;;;;;;;22.50;39.93;101938.28;4995722;28;20022;-72
2022/07/28 08:33:34;;;;;;;3.38;0.90;;;;;;;23.26;39.40;101937.06;4995409;28;20038;-72
2022/07/28 08:36:00;;;;;;;2.83;1.08;;;;;;;23.19;38.36;101932.75;4995735;28;20037;-72
2022/07/28 08:38:25;;;;;;;3.53;1.15;;;;;;;21.39;41.31;101938.56;4995710;28;20026;-72
2022/07/28 08:40:55;;;;;;;2.58;1.05;;;;;;;22.25;41.34;101936.03;4995428;28;20084;-72
2022/07/28 08:43:32;;;;;;;3.08;0.93;;;;;;;23.79;37.67;101938.22;4993984;28;20031;-72
2022/07/28 08:46:02;;;;;;;3.25;1.00;;;;;;;22.47;40.36;101941.41;4994834;28;20027;-72
2022/07/28 08:48:35;;;;;;;2.88;1.00;;;;;;;;;;4995356;28;20490;-72
2022/07/28 08:51:06;;;;;;;2.35;1.05;;;;;;;23.85;37.84;101937.25;4995740;28;20033;-71
2022/07/28 08:53:34;;;;;;;4.45;1.08;;;;;;;24.09;37.49;101937.75;4995113;28;20386;-71
2022/07/28 08:56:05;;;;;;;2.70;0.80;;;;;;;22.63;40.42;101939.81;4993706;28;20022;-71
2022/07/28 08:58:32;;;;;;;3.03;1.00;;;;;;;23.21;38.94;101929.84;4993689;28;20363;-71
2022/07/28 09:00:58;;;;;;;5.55;1.00;;;;;;;22.73;39.71;101933.91;4994987;28;20033;-70
2022/07/28 09:03:25;;;;;;;2.95;0.95;;;;;;;22.80;40.00;101926.63;4994989;28;20057;-70
2022/07/28 09:05:51;;;;;;;2.45;1.00;;;;;;;23.45;38.56;101938.38;4994742;28;20101;-70
2022/07/28 09:08:18;;;;;;;2.00;0.98;;;;;;;23.40;39.16;101928.53;4993613;28;20077;-70
2022/07/28 09:10:43;;;;;;;3.15;1.10;;;;;;;22.74;39.78;101932.88;4994796;28;20533;-71
2022/07/28 09:13:08;;;;;;;2.65;0.90;;;;;;;23.71;37.72;101930.75;4994809;28;20105;-72
2022/07/28 09:15:36;;;;;;;5.75;1.20;;;;;;;23.68;37.08;101931.22;4994744;28;20022;-72
2022/07/28 09:18:01;;;;;;;3.05;1.42;;;;;;;23.69;37.47;101936.25;4994645;28;20025;-71
2022/07/28 09:20:28;;;;;;;4.53;1.27;;;;;;;21.46;41.16;101938.41;4994665;28;20042;-71
2022/07/28 09:23:01;;;;;;;1.58;0.90;;;;;;;22.79;38.64;101935.59;4994592;28;20018;-71
2022/07/28 09:25:27;;;;;;;2.90;1.13;;;;;;;23.22;38.43;101928.00;4994626;28;20030;-71
2022/07/28 09:27:54;;;;;;;7.18;0.90;;;;;;;23.14;38.38;101929.25;4994461;28;20076;-71
2022/07/28 09:30:27;;;;;;;3.28;1.00;;;;;;;23.63;37.00;101937.25;4994598;28;20030;-72
2022/07/28 09:33:10;;;;;;;4.15;0.90;;;;;;;24.43;37.40;101927.81;4993203;28;20429;-71
2022/07/28 09:35:42;;;;;;;5.22;1.00;;;;;;;24.15;35.99;101931.47;4994750;28;20023;-71
2022/07/28 09:38:08;;;;;;;6.53;1.23;;;;;;;24.49;36.19;101918.88;4993195;28;20022;-72
2022/07/28 09:40:33;;;;;;;1.35;0.80;;;;;;;25.16;34.54;101911.38;4994334;28;20490;-72
2022/07/28 09:42:59;;;;;;;2.25;1.00;;;;;;;21.91;38.53;101919.31;4993072;28;20172;-72
2022/07/28 09:45:27;;;;;;;3.00;1.25;;;;;;;23.01;37.45;101914.56;4994121;28;20026;-72
2022/07/28 09:48:12;;;;;;;3.47;1.00;;;;;;;23.40;35.99;101917.19;4994189;28;20037;-71
2022/07/28 09:50:40;;;;;;;2.47;1.10;;;;;;;22.84;36.80;101916.41;4994194;28;20033;-72
2022/07/28 09:53:23;;;;;;;3.20;1.15;;;;;;;23.86;35.97;101917.75;4992717;28;20018;-72
2022/07/28 09:55:58;;;;;;;1.77;0.98;;;;;;;23.84;36.33;101920.63;4993691;28;20090;-72
2022/07/28 09:58:24;;;;;;;3.97;1.20;;;;;;;25.12;34.71;101912.91;4992726;28;20105;-72
2022/07/28 10:00:49;;;;;;;4.78;1.20;;;;;;;24.22;35.38;101910.94;4992665;28;20060;-72
2022/07/28 10:03:24;;;;;;;5.53;1.30;;;;;;;24.59;34.72;101907.56;4992731;28;20026;-72
2022/07/28 10:05:50;;;;;;;5.55;1.35;;;;;;;23.49;36.48;101907.81;4992749;28;20064;-72
2022/07/28 10:08:15;;;;;;;2.20;0.82;;;;;;;24.16;35.65;101906.66;4992635;28;20433;-72
2022/07/28 10:10:41;;;;;;;4.38;1.27;;;;;;;24.14;34.48;101910.59;4994054;28;20022;-72
2022/07/28 10:13:06;;;;;;;2.75;1.13;;;;;;;23.90;35.32;101907.47;4993734;28;20022;-72
2022/07/28 10:18:15;;;;;;;2.03;1.02;;;;;;;24.64;34.50;101909.44;4994197;28;20181;-72
2022/07/28 10:20:41;;;;;;;3.00;1.10;;;;;;;24.88;33.46;101905.38;4992380;28;20132;-71
2022/07/28 10:23:11;;;;;;;3.63;1.08;;;;;;;24.44;34.89;101895.03;4993535;28;20522;-71
2022/07/28 10:25:38;;;;;;;2.00;0.90;;;;;;;24.49;33.97;101902.22;4993294;28;20026;-71
2022/07/28 10:28:05;;;;;;;2.22;1.00;;;;;;;23.55;35.43;101898.91;4993472;28;20034;-72
2022/07/28 10:30:36;;;;;;;3.17;1.00;;;;;;;23.90;34.73;101897.72;4992401;28;20470;-71
2022/07/28 10:33:07;;;;;;;2.03;1.00;;;;;;;24.30;34.17;101888.56;4992359;28;20493;-72
2022/07/28 10:35:34;;;;;;;1.98;1.20;;;;;;;23.66;34.70;101897.16;4993580;28;20101;-72
2022/07/28 10:38:10;;;;;;;5.93;1.20;;;;;;;22.15;36.44;101891.03;4992588;28;20038;-71
2022/07/28 10:40:39;;;;;;;3.78;1.00;;;;;;;22.61;36.62;101893.66;4993709;28;20038;-72
2022/07/28 10:43:07;;;;;;;2.60;0.90;;;;;;;24.00;34.81;101889.91;4992479;28;20026;-72
2022/07/28 10:45:33;;;;;;;4.55;1.20;;;;;;;24.25;35.97;101881.38;4993272;28;20104;-72
2022/07/28 10:47:59;;;;;;;1.83;1.15;;;;;;;24.16;36.84;101874.19;4993552;28;20109;-72
2022/07/28 10:50:25;;;;;;;3.65;1.05;;;;;;;24.00;36.72;101873.25;4993516;28;20454;-72
2022/07/28 10:52:51;;;;;;;4.15;1.15;;;;;;;23.24;36.75;101883.75;4992180;28;20470;-72
2022/07/28 10:55:26;;;;;;;3.05;1.33;;;;;;;23.16;36.06;101885.78;4993090;28;20077;-72
2022/07/28 10:58:11;;;;;;;2.45;1.08;;;;;;;23.98;35.39;101878.78;4993188;28;20093;-72
2022/07/28 11:00:45;;;;;;;2.20;1.10;;;;;;;23.39;37.76;101868.09;4993385;28;20101;-71
2022/07/28 11:03:45;;;;;;;1.92;0.95;;;;;;;21.98;39.20;101866.53;4993175;28;20068;-70
2022/07/28 11:06:43;;;;;;;6.30;1.63;;;;;;;23.37;37.90;101862.28;4991997;28;20118;-73
2022/07/28 11:09:15;;;;;;;3.10;1.08;;;;;;;23.64;36.46;101871.03;4996967;28;20026;-74
2022/07/28 11:11:51;;;;;;;3.65;1.08;;;;;;;23.96;36.29;101853.69;4997075;28;20104;-72
2022/07/28 11:14:28;;;;;;;7.35;1.20;;;;;;;25.23;33.64;101852.94;5012150;28;20076;-71
2022/07/28 11:16:59;;;;;;;3.90;1.20;;;;;;;25.41;34.10;101866.50;4997088;28;20021;-72
2022/07/28 11:19:29;;;;;;;3.40;0.95;;;;;;;25.31;33.59;101853.22;4995324;28;20391;-72
2022/07/28 11:22:14;;;;;;;2.80;0.93;;;;;;;23.99;34.97;101845.25;4996864;28;20022;-71
2022/07/28 11:25:04;;;;;;;3.10;1.15;;;;;;;24.91;35.40;101859.13;4995394;28;20481;-71
2022/07/28 11:27:42;;;;;;;3.83;1.00;;;;;;;22.80;37.21;101852.84;4995357;28;20088;-72
2022/07/28 11:30:12;;;;;;;3.95;1.08;;;;;;;24.56;35.23;101849.94;4995346;28;20037;-71
2022/07/28 11:32:55;;;;;;;3.55;1.20;;;;;;;24.22;35.39;101849.41;4996743;28;20037;-71
2022/07/28 11:35:24;;;;;;;1.75;0.88;;;;;;;25.95;33.11;101851.25;4996570;28;20026;-72
2022/07/28 11:38:01;;;;;;;7.80;1.65;;;;;;;24.35;34.88;101845.56;4996446;28;20034;-72
2022/07/28 11:40:56;;;;;;;6.10;1.30;;;;;;;24.15;35.30;101846.97;4996388;28;20026;-72